createdAt,value
2022-10-02T00:02:27.869Z,7.38
2022-10-02T00:06:39.186Z,7.70
2022-10-02T00:11:12.840Z,2.83
2022-10-02T00:15:19.130Z,5.00
2022-10-02T00:19:21.177Z,4.80
2022-10-02T00:23:46.655Z,7.55
2022-10-02T00:28:04.605Z,7.20
2022-10-02T00:32:20.050Z,7.00
2022-10-02T00:36:58.802Z,6.18
2022-10-02T00:41:26.873Z,6.70
2022-10-02T00:45:49.333Z,3.35
2022-10-02T00:50:28.055Z,5.22
2022-10-02T00:54:55.873Z,7.40
2022-10-02T00:59:19.115Z,10.50
2022-10-02T01:03:27.155Z,8.40
2022-10-02T01:07:28.742Z,6.13
2022-10-02T01:11:30.850Z,7.18
2022-10-02T01:15:58.735Z,5.28
2022-10-02T01:20:05.685Z,6.30
2022-10-02T01:24:17.841Z,3.07
2022-10-02T01:28:19.879Z,6.03
2022-10-02T01:32:23.330Z,7.45
2022-10-02T01:36:24.734Z,8.70
2022-10-02T01:40:29.078Z,8.13
2022-10-02T01:44:30.862Z,4.43
2022-10-02T01:48:56.478Z,4.05
2022-10-02T01:53:08.629Z,5.47
2022-10-02T01:57:44.243Z,7.30
2022-10-02T02:02:07.484Z,4.05
2022-10-02T02:06:15.770Z,4.65
2022-10-02T02:10:56.739Z,4.20
2022-10-02T02:15:03.419Z,6.63
2022-10-02T02:19:31.849Z,9.55
2022-10-02T02:23:36.580Z,6.25
2022-10-02T02:27:41.873Z,8.82
2022-10-02T02:31:48.337Z,6.90
2022-10-02T02:35:53.416Z,4.30
2022-10-02T02:40:02.051Z,5.10
2022-10-02T02:44:12.426Z,5.63
2022-10-02T02:48:20.834Z,4.88
2022-10-02T02:52:27.987Z,9.02
2022-10-02T02:56:30.142Z,9.75
2022-10-02T03:00:31.808Z,5.82
2022-10-02T03:04:33.314Z,5.93
2022-10-02T03:08:36.536Z,8.25
2022-10-02T03:12:48.267Z,5.35
2022-10-02T03:17:20.107Z,10.13
2022-10-02T03:21:30.823Z,7.82
2022-10-02T03:25:52.162Z,9.05
2022-10-02T03:30:07.894Z,4.55
2022-10-02T03:34:09.803Z,8.40
2022-10-02T03:38:12.559Z,8.00
2022-10-02T03:42:15.455Z,7.30
2022-10-02T03:46:17.871Z,10.10
2022-10-02T03:50:19.901Z,5.28
2022-10-02T03:54:22.382Z,4.13
2022-10-02T03:58:25.708Z,4.90
2022-10-02T04:02:35.781Z,6.75
2022-10-02T04:06:48.552Z,5.72
2022-10-02T04:11:08.765Z,8.57
2022-10-02T04:15:20.292Z,6.78
2022-10-02T04:19:25.047Z,6.32
2022-10-02T04:23:31.518Z,8.50
2022-10-02T04:27:59.119Z,8.02
2022-10-02T04:37:01.479Z,5.25
2022-10-02T04:41:03.122Z,4.88
2022-10-02T04:45:26.693Z,5.45
2022-10-02T04:49:43.446Z,7.88
2022-10-02T04:54:12.410Z,6.32
2022-10-02T04:58:16.908Z,8.27
2022-10-02T05:02:33.690Z,8.52
2022-10-02T05:06:41.200Z,6.53
2022-10-02T05:11:20.908Z,4.85
2022-10-02T05:15:41.857Z,11.75
2022-10-02T05:19:59.159Z,6.57
2022-10-02T05:24:18.838Z,7.25
2022-10-02T05:28:23.601Z,4.88
2022-10-02T05:32:40.948Z,5.80
2022-10-02T05:36:54.567Z,3.65
2022-10-02T05:41:24.984Z,5.63
2022-10-02T05:45:31.691Z,6.15
2022-10-02T05:49:40.896Z,6.00
2022-10-02T05:53:53.243Z,10.15
2022-10-02T05:58:08.756Z,7.70
2022-10-02T06:02:21.348Z,5.13
2022-10-02T06:06:28.455Z,7.68
2022-10-02T06:10:57.370Z,6.23
2022-10-02T06:15:22.698Z,7.10
2022-10-02T06:19:28.311Z,9.88
2022-10-02T06:23:31.999Z,4.57
2022-10-02T06:27:41.577Z,5.25
2022-10-02T06:31:54.828Z,5.22
2022-10-02T06:36:08.296Z,8.50
2022-10-02T06:40:18.864Z,9.02
2022-10-02T06:44:29.568Z,9.02
2022-10-02T06:49:00.570Z,10.15
2022-10-02T06:53:24.422Z,6.30
2022-10-02T06:57:33.769Z,6.55
2022-10-02T07:02:00.323Z,8.50
2022-10-02T07:06:26.286Z,13.48
2022-10-02T07:10:34.472Z,9.10
2022-10-02T07:15:13.616Z,14.20
2022-10-02T07:19:36.155Z,7.75
2022-10-02T07:24:02.543Z,6.13
2022-10-02T07:28:25.190Z,8.90
2022-10-02T07:32:41.875Z,9.43
2022-10-02T07:37:15.539Z,7.22
2022-10-02T07:41:48.274Z,9.20
2022-10-02T07:46:08.171Z,9.80
2022-10-02T07:50:13.982Z,11.48
2022-10-02T07:54:30.729Z,11.00
2022-10-02T07:58:57.249Z,9.38
2022-10-02T08:03:08.481Z,12.00
2022-10-02T08:07:10.692Z,10.45
2022-10-02T08:11:30.255Z,11.13
2022-10-02T08:15:36.527Z,8.68
2022-10-02T08:19:41.483Z,9.63
2022-10-02T08:24:06.345Z,7.05
2022-10-02T08:28:16.589Z,13.05
2022-10-02T08:32:18.182Z,9.95
2022-10-02T08:36:46.224Z,13.98
2022-10-02T08:41:09.290Z,14.07
2022-10-02T08:45:35.370Z,7.38
2022-10-02T08:49:39.997Z,9.40
2022-10-02T08:54:12.849Z,10.82
2022-10-02T08:58:31.399Z,7.15
2022-10-02T09:03:02.361Z,4.28
2022-10-02T09:07:35.424Z,5.57
2022-10-02T09:11:45.443Z,8.52
2022-10-02T09:16:05.472Z,8.13
2022-10-02T09:20:25.921Z,5.07
2022-10-02T09:24:49.184Z,6.35
2022-10-02T09:29:21.221Z,5.68
2022-10-02T09:34:06.037Z,5.47
2022-10-02T09:38:30.423Z,3.20
2022-10-02T09:42:54.756Z,6.30
2022-10-02T09:46:58.992Z,1.58
2022-10-02T09:51:04.851Z,1.50
2022-10-02T09:55:50.061Z,1.75
2022-10-02T10:00:11.419Z,1.52
2022-10-02T10:04:54.118Z,0.80
2022-10-02T10:09:20.675Z,0.55
2022-10-02T10:13:40.399Z,1.40
2022-10-02T10:18:04.013Z,1.67
2022-10-02T10:22:27.302Z,1.35
2022-10-02T10:26:47.690Z,8.65
2022-10-02T10:31:26.965Z,9.90
2022-10-02T10:36:31.104Z,6.78
2022-10-02T10:40:42.586Z,9.18
2022-10-02T10:45:20.035Z,5.60
2022-10-02T10:49:35.669Z,7.18
2022-10-02T10:54:08.509Z,9.30
2022-10-02T10:58:21.268Z,10.27
2022-10-02T11:02:54.793Z,6.88
2022-10-02T11:07:15.560Z,9.10
2022-10-02T11:11:36.069Z,9.13
2022-10-02T11:16:06.983Z,7.20
2022-10-02T11:20:30.824Z,8.93
2022-10-02T11:24:39.311Z,12.80
2022-10-02T11:29:14.077Z,6.90
2022-10-02T11:33:38.416Z,5.40
2022-10-02T11:38:08.175Z,6.85
2022-10-02T11:42:40.188Z,5.10
2022-10-02T11:46:52.419Z,5.10
2022-10-02T11:51:10.439Z,3.75
2022-10-02T11:55:38.256Z,3.90
2022-10-02T12:00:09.186Z,3.95
2022-10-02T12:04:46.624Z,2.72
2022-10-02T12:09:07.415Z,1.90
2022-10-02T12:13:33.877Z,2.17
2022-10-02T12:17:46.095Z,3.25
2022-10-02T12:22:13.029Z,1.50
2022-10-02T12:26:48.745Z,1.73
2022-10-02T12:31:17.187Z,2.00
2022-10-02T12:35:22.211Z,2.42
2022-10-02T12:39:51.700Z,4.15
2022-10-02T12:44:13.152Z,1.80
2022-10-02T12:48:20.688Z,2.95
2022-10-02T12:52:48.875Z,1.33
2022-10-02T12:57:07.671Z,1.52
2022-10-02T13:01:31.742Z,2.95
2022-10-02T13:06:01.946Z,1.65
2022-10-02T13:10:24.515Z,1.05
2022-10-02T13:14:53.525Z,4.20
2022-10-02T13:19:01.421Z,1.20
2022-10-02T13:27:20.323Z,1.40
2022-10-02T13:31:45.918Z,1.77
2022-10-02T13:35:57.319Z,1.08
2022-10-02T13:40:04.864Z,0.60
2022-10-02T13:44:34.055Z,2.33
2022-10-02T13:49:18.255Z,1.73
2022-10-02T13:53:31.917Z,0.40
2022-10-02T13:58:18.260Z,0.57
2022-10-02T14:02:44.178Z,0.50
2022-10-02T14:07:28.241Z,0.65
2022-10-02T14:11:41.394Z,0.77
2022-10-02T14:15:55.702Z,0.50
2022-10-02T14:20:25.183Z,0.75
2022-10-02T14:24:52.691Z,0.60
2022-10-02T14:29:20.170Z,0.80
2022-10-02T14:33:37.981Z,1.08
2022-10-02T14:37:58.466Z,2.28
2022-10-02T14:42:06.083Z,1.60
2022-10-02T14:46:20.097Z,1.50
2022-10-02T14:50:31.325Z,2.55
2022-10-02T14:54:54.848Z,1.35
2022-10-02T14:59:11.539Z,2.25
2022-10-02T15:03:50.502Z,2.42
2022-10-02T15:07:52.738Z,2.28
2022-10-02T15:12:10.975Z,1.50
2022-10-02T15:16:51.703Z,0.82
2022-10-02T15:21:00.574Z,1.58
2022-10-02T15:25:24.855Z,1.45
2022-10-02T15:29:33.068Z,1.73
2022-10-02T15:33:43.435Z,1.42
2022-10-02T15:38:22.662Z,3.05
2022-10-02T15:42:33.308Z,10.35
2022-10-02T15:47:07.078Z,1.63
2022-10-02T15:51:27.603Z,10.40
2022-10-02T15:55:29.182Z,8.95
2022-10-02T15:59:30.527Z,3.22
2022-10-02T16:03:41.923Z,2.97
2022-10-02T16:07:49.744Z,1.75
2022-10-02T16:16:17.970Z,4.43
2022-10-02T16:20:30.420Z,5.72
2022-10-02T16:24:53.218Z,2.55
2022-10-02T16:29:17.320Z,3.33
2022-10-02T16:33:21.005Z,2.70
2022-10-02T16:37:29.326Z,4.18
2022-10-02T16:41:41.235Z,2.78
2022-10-02T16:46:03.425Z,5.18
2022-10-02T16:50:20.207Z,4.03
2022-10-02T16:54:30.372Z,2.63
2022-10-02T16:59:12.844Z,3.03
2022-10-02T17:03:29.563Z,5.93
2022-10-02T17:07:37.092Z,10.88
2022-10-02T17:11:48.151Z,5.03
2022-10-02T17:15:56.328Z,4.85
2022-10-02T17:20:00.885Z,5.25
2022-10-02T17:24:32.194Z,3.17
2022-10-02T17:28:50.358Z,2.30
2022-10-02T17:33:11.816Z,3.35
2022-10-02T17:37:13.230Z,6.43
2022-10-02T17:41:37.524Z,7.00
2022-10-02T17:45:44.740Z,5.65
2022-10-02T17:49:52.233Z,4.18
2022-10-02T17:55:04.646Z,3.58
2022-10-02T17:59:17.383Z,2.25
2022-10-02T18:03:39.159Z,4.90
2022-10-02T18:08:02.638Z,3.92
2022-10-02T18:12:18.636Z,3.15
2022-10-02T18:16:31.635Z,3.33
2022-10-02T18:21:08.515Z,1.65
2022-10-02T18:25:41.316Z,2.13
2022-10-02T18:29:55.052Z,2.88
2022-10-02T18:34:20.937Z,3.78
2022-10-02T18:38:47.916Z,2.67
2022-10-02T18:42:52.475Z,3.58
2022-10-02T18:47:02.507Z,4.45
2022-10-02T18:51:46.364Z,3.25
2022-10-02T18:56:07.033Z,2.30
2022-10-02T19:00:28.130Z,3.90
2022-10-02T19:04:45.975Z,4.85
2022-10-02T19:09:10.076Z,3.50
2022-10-02T19:13:24.325Z,4.28
2022-10-02T19:17:27.951Z,3.85
2022-10-02T19:21:29.819Z,7.35
2022-10-02T19:25:31.564Z,5.15
2022-10-02T19:29:40.501Z,7.45
2022-10-02T19:33:54.092Z,7.10
2022-10-02T19:38:27.784Z,18.40
2022-10-02T19:42:36.453Z,18.05
2022-10-02T19:46:44.455Z,10.05
2022-10-02T19:50:52.072Z,8.70
2022-10-02T19:54:53.943Z,8.10
2022-10-02T19:59:20.637Z,7.57
2022-10-02T20:03:25.558Z,5.82
2022-10-02T20:07:29.726Z,5.18
2022-10-02T20:11:38.071Z,5.75
2022-10-02T20:16:08.302Z,5.72
2022-10-02T20:20:13.520Z,5.85
2022-10-02T20:24:40.499Z,5.60
2022-10-02T20:28:49.739Z,5.63
2022-10-02T20:33:02.899Z,7.57
2022-10-02T20:37:18.146Z,7.53
2022-10-02T20:41:24.432Z,6.03
2022-10-02T20:45:48.041Z,7.43
2022-10-02T20:50:21.916Z,9.20
2022-10-02T20:54:55.783Z,6.85
2022-10-02T20:59:19.187Z,7.55
2022-10-02T21:03:43.160Z,6.95
2022-10-02T21:08:09.025Z,5.65
2022-10-02T21:12:31.742Z,3.42
2022-10-02T21:16:55.698Z,5.95
2022-10-02T21:21:10.895Z,4.03
2022-10-02T21:25:27.294Z,6.63
2022-10-02T21:29:32.101Z,7.75
2022-10-02T21:33:40.983Z,6.53
2022-10-02T21:37:54.725Z,9.60
2022-10-02T21:42:22.562Z,8.48
2022-10-02T21:46:52.294Z,6.88
2022-10-02T21:51:15.314Z,6.63
2022-10-02T21:55:35.768Z,7.50
2022-10-02T22:00:08.767Z,10.50
2022-10-02T22:04:38.391Z,8.40
2022-10-02T22:09:03.747Z,7.50
2022-10-02T22:13:05.906Z,7.97
2022-10-02T22:17:09.904Z,10.98
2022-10-02T22:21:32.780Z,8.05
2022-10-02T22:25:59.824Z,7.32
2022-10-02T22:30:01.550Z,7.03
2022-10-02T22:34:24.614Z,4.80
2022-10-02T22:38:52.023Z,5.93
2022-10-02T22:42:59.508Z,6.97
2022-10-02T22:47:43.904Z,8.25
2022-10-02T22:52:00.018Z,7.07
2022-10-02T22:56:16.734Z,12.27
2022-10-02T23:00:32.328Z,6.60
2022-10-02T23:04:56.657Z,8.30
2022-10-02T23:09:27.816Z,5.50
2022-10-02T23:13:38.105Z,7.30
2022-10-02T23:17:45.920Z,5.60
2022-10-02T23:26:03.797Z,5.38
2022-10-02T23:30:08.482Z,5.32
2022-10-02T23:34:34.830Z,6.47
2022-10-02T23:38:45.679Z,6.03
2022-10-02T23:42:52.081Z,8.00
2022-10-02T23:47:01.591Z,13.82
2022-10-02T23:51:34.283Z,9.68
2022-10-02T23:55:52.661Z,8.85
